sensor_id;sensor_type;location;lat;lon;timestamp;P1;durP1;ratioP1;P2;durP2;ratioP2
325;SDS011;150;52.352;14.058;2022-09-12T00:00:43;4.60;;;4.20;;
325;SDS011;150;52.352;14.058;2022-09-12T00:03:10;5.50;;;4.93;;
325;SDS011;150;52.352;14.058;2022-09-12T00:05:39;6.00;;;4.82;;
325;SDS011;150;52.352;14.058;2022-09-12T00:08:08;6.40;;;4.40;;
325;SDS011;150;52.352;14.058;2022-09-12T00:10:37;5.70;;;4.97;;
325;SDS011;150;52.352;14.058;2022-09-12T00:13:04;6.43;;;4.80;;
325;SDS011;150;52.352;14.058;2022-09-12T00:15:31;5.70;;;4.35;;
325;SDS011;150;52.352;14.058;2022-09-12T00:18:02;6.95;;;5.20;;
325;SDS011;150;52.352;14.058;2022-09-12T00:20:29;6.63;;;5.07;;
325;SDS011;150;52.352;14.058;2022-09-12T00:22:56;6.80;;;4.93;;
325;SDS011;150;52.352;14.058;2022-09-12T00:25:22;5.97;;;4.43;;
325;SDS011;150;52.352;14.058;2022-09-12T00:27:50;6.53;;;5.20;;
325;SDS011;150;52.352;14.058;2022-09-12T00:30:17;5.85;;;4.50;;
325;SDS011;150;52.352;14.058;2022-09-12T00:32:43;5.65;;;4.70;;
325;SDS011;150;52.352;14.058;2022-09-12T00:35:10;6.85;;;4.90;;
325;SDS011;150;52.352;14.058;2022-09-12T00:37:37;5.03;;;4.25;;
325;SDS011;150;52.352;14.058;2022-09-12T00:40:04;5.40;;;4.80;;
325;SDS011;150;52.352;14.058;2022-09-12T00:42:31;5.30;;;4.57;;
325;SDS011;150;52.352;14.058;2022-09-12T00:44:59;6.80;;;5.55;;
325;SDS011;150;52.352;14.058;2022-09-12T00:47:26;6.97;;;5.40;;
325;SDS011;150;52.352;14.058;2022-09-12T00:49:56;6.55;;;4.93;;
325;SDS011;150;52.352;14.058;2022-09-12T00:52:29;5.75;;;4.60;;
325;SDS011;150;52.352;14.058;2022-09-12T00:55:02;5.80;;;4.32;;
325;SDS011;150;52.352;14.058;2022-09-12T00:57:31;5.20;;;4.63;;
325;SDS011;150;52.352;14.058;2022-09-12T01:00:07;6.43;;;4.80;;
325;SDS011;150;52.352;14.058;2022-09-12T01:02:39;5.82;;;4.70;;
325;SDS011;150;52.352;14.058;2022-09-12T01:05:07;5.43;;;4.43;;
325;SDS011;150;52.352;14.058;2022-09-12T01:07:34;6.15;;;4.70;;
325;SDS011;150;52.352;14.058;2022-09-12T01:10:02;5.22;;;4.60;;
325;SDS011;150;52.352;14.058;2022-09-12T01:12:30;5.30;;;4.97;;
325;SDS011;150;52.352;14.058;2022-09-12T01:14:57;5.40;;;5.10;;
325;SDS011;150;52.352;14.058;2022-09-12T01:17:26;6.78;;;4.93;;
325;SDS011;150;52.352;14.058;2022-09-12T01:20:08;6.20;;;4.90;;
325;SDS011;150;52.352;14.058;2022-09-12T01:23:07;7.50;;;5.20;;
325;SDS011;150;52.352;14.058;2022-09-12T01:25:59;8.20;;;5.40;;
325;SDS011;150;52.352;14.058;2022-09-12T01:28:52;8.07;;;5.57;;
325;SDS011;150;52.352;14.058;2022-09-12T01:31:36;7.45;;;5.45;;
325;SDS011;150;52.352;14.058;2022-09-12T01:34:14;5.80;;;4.95;;
325;SDS011;150;52.352;14.058;2022-09-12T01:36:49;8.00;;;5.70;;
325;SDS011;150;52.352;14.058;2022-09-12T01:39:26;6.28;;;4.95;;
325;SDS011;150;52.352;14.058;2022-09-12T01:42:00;7.07;;;5.03;;
325;SDS011;150;52.352;14.058;2022-09-12T01:44:37;6.15;;;4.80;;
325;SDS011;150;52.352;14.058;2022-09-12T01:47:12;8.25;;;5.10;;
325;SDS011;150;52.352;14.058;2022-09-12T01:49:51;6.95;;;4.88;;
325;SDS011;150;52.352;14.058;2022-09-12T01:52:24;6.55;;;5.60;;
325;SDS011;150;52.352;14.058;2022-09-12T01:54:58;8.10;;;5.53;;
325;SDS011;150;52.352;14.058;2022-09-12T01:57:30;6.75;;;5.32;;
325;SDS011;150;52.352;14.058;2022-09-12T02:00:05;6.05;;;5.30;;
325;SDS011;150;52.352;14.058;2022-09-12T02:02:37;5.93;;;4.95;;
325;SDS011;150;52.352;14.058;2022-09-12T02:05:07;5.00;;;4.27;;
325;SDS011;150;52.352;14.058;2022-09-12T02:07:37;5.97;;;4.90;;
325;SDS011;150;52.352;14.058;2022-09-12T02:10:08;8.00;;;5.60;;
325;SDS011;150;52.352;14.058;2022-09-12T02:12:39;6.45;;;5.95;;
325;SDS011;150;52.352;14.058;2022-09-12T02:15:11;5.70;;;4.57;;
325;SDS011;150;52.352;14.058;2022-09-12T02:17:41;5.60;;;4.50;;
325;SDS011;150;52.352;14.058;2022-09-12T02:20:12;7.65;;;5.80;;
325;SDS011;150;52.352;14.058;2022-09-12T02:22:41;7.57;;;5.93;;
325;SDS011;150;52.352;14.058;2022-09-12T02:25:10;8.88;;;5.63;;
325;SDS011;150;52.352;14.058;2022-09-12T02:27:41;8.95;;;6.07;;
325;SDS011;150;52.352;14.058;2022-09-12T02:30:14;6.25;;;5.28;;
325;SDS011;150;52.352;14.058;2022-09-12T02:32:45;8.80;;;6.30;;
325;SDS011;150;52.352;14.058;2022-09-12T02:35:24;8.40;;;5.70;;
325;SDS011;150;52.352;14.058;2022-09-12T02:38:00;9.80;;;5.65;;
325;SDS011;150;52.352;14.058;2022-09-12T02:40:31;7.32;;;4.90;;
325;SDS011;150;52.352;14.058;2022-09-12T02:42:59;6.28;;;5.10;;
325;SDS011;150;52.352;14.058;2022-09-12T02:45:28;7.50;;;5.45;;
325;SDS011;150;52.352;14.058;2022-09-12T02:47:58;8.23;;;5.68;;
325;SDS011;150;52.352;14.058;2022-09-12T02:50:27;9.00;;;6.72;;
325;SDS011;150;52.352;14.058;2022-09-12T02:52:54;7.32;;;5.75;;
325;SDS011;150;52.352;14.058;2022-09-12T02:55:24;6.30;;;5.22;;
325;SDS011;150;52.352;14.058;2022-09-12T02:57:51;7.53;;;5.82;;
325;SDS011;150;52.352;14.058;2022-09-12T03:00:17;6.40;;;5.10;;
325;SDS011;150;52.352;14.058;2022-09-12T03:02:50;7.53;;;5.28;;
325;SDS011;150;52.352;14.058;2022-09-12T03:05:31;7.38;;;5.25;;
325;SDS011;150;52.352;14.058;2022-09-12T03:08:10;5.72;;;4.47;;
325;SDS011;150;52.352;14.058;2022-09-12T03:10:50;6.60;;;4.90;;
325;SDS011;150;52.352;14.058;2022-09-12T03:13:31;6.00;;;5.18;;
325;SDS011;150;52.352;14.058;2022-09-12T03:16:07;6.60;;;5.30;;
325;SDS011;150;52.352;14.058;2022-09-12T03:18:45;4.80;;;4.00;;
325;SDS011;150;52.352;14.058;2022-09-12T03:21:20;7.75;;;4.68;;
325;SDS011;150;52.352;14.058;2022-09-12T03:23:54;6.05;;;4.53;;
325;SDS011;150;52.352;14.058;2022-09-12T03:26:35;5.90;;;4.77;;
325;SDS011;150;52.352;14.058;2022-09-12T03:29:05;6.57;;;4.65;;
325;SDS011;150;52.352;14.058;2022-09-12T03:31:33;4.55;;;3.55;;
325;SDS011;150;52.352;14.058;2022-09-12T03:34:01;4.65;;;4.40;;
325;SDS011;150;52.352;14.058;2022-09-12T03:36:28;5.82;;;4.97;;
325;SDS011;150;52.352;14.058;2022-09-12T03:38:55;6.28;;;5.38;;
325;SDS011;150;52.352;14.058;2022-09-12T03:41:22;7.60;;;4.28;;
325;SDS011;150;52.352;14.058;2022-09-12T03:43:53;5.78;;;4.78;;
325;SDS011;150;52.352;14.058;2022-09-12T03:46:20;9.02;;;5.32;;
325;SDS011;150;52.352;14.058;2022-09-12T03:48:47;5.45;;;4.60;;
325;SDS011;150;52.352;14.058;2022-09-12T03:51:16;5.72;;;4.53;;
325;SDS011;150;52.352;14.058;2022-09-12T03:53:42;8.40;;;5.00;;
325;SDS011;150;52.352;14.058;2022-09-12T03:56:10;5.82;;;5.00;;
325;SDS011;150;52.352;14.058;2022-09-12T03:58:37;5.95;;;4.80;;
325;SDS011;150;52.352;14.058;2022-09-12T04:01:07;5.45;;;4.65;;
325;SDS011;150;52.352;14.058;2022-09-12T04:03:36;5.93;;;4.88;;
325;SDS011;150;52.352;14.058;2022-09-12T04:06:04;5.97;;;5.10;;
325;SDS011;150;52.352;14.058;2022-09-12T04:08:32;6.53;;;5.18;;
325;SDS011;150;52.352;14.058;2022-09-12T04:11:02;6.20;;;4.70;;
325;SDS011;150;52.352;14.058;2022-09-12T04:13:30;5.43;;;4.53;;
325;SDS011;150;52.352;14.058;2022-09-12T04:15:57;6.97;;;4.72;;
325;SDS011;150;52.352;14.058;2022-09-12T04:18:24;5.55;;;4.72;;
325;SDS011;150;52.352;14.058;2022-09-12T04:20:51;6.07;;;4.37;;
325;SDS011;150;52.352;14.058;2022-09-12T04:23:18;5.30;;;4.00;;
325;SDS011;150;52.352;14.058;2022-09-12T04:25:53;4.80;;;4.50;;
325;SDS011;150;52.352;14.058;2022-09-12T04:28:19;5.80;;;4.70;;
325;SDS011;150;52.352;14.058;2022-09-12T04:30:46;4.88;;;4.05;;
325;SDS011;150;52.352;14.058;2022-09-12T04:33:13;6.27;;;5.33;;
325;SDS011;150;52.352;14.058;2022-09-12T04:35:39;7.50;;;5.40;;
325;SDS011;150;52.352;14.058;2022-09-12T04:38:06;6.20;;;5.07;;
325;SDS011;150;52.352;14.058;2022-09-12T04:40:33;6.18;;;5.20;;
325;SDS011;150;52.352;14.058;2022-09-12T04:43:01;6.88;;;4.70;;
325;SDS011;150;52.352;14.058;2022-09-12T04:45:28;4.90;;;4.32;;
325;SDS011;150;52.352;14.058;2022-09-12T04:47:55;6.15;;;5.22;;
325;SDS011;150;52.352;14.058;2022-09-12T04:50:22;6.18;;;4.60;;
325;SDS011;150;52.352;14.058;2022-09-12T04:52:49;7.22;;;4.75;;
325;SDS011;150;52.352;14.058;2022-09-12T04:55:15;6.22;;;4.50;;
325;SDS011;150;52.352;14.058;2022-09-12T04:57:42;7.07;;;5.43;;
325;SDS011;150;52.352;14.058;2022-09-12T05:00:11;9.00;;;5.50;;
325;SDS011;150;52.352;14.058;2022-09-12T05:02:39;5.33;;;5.00;;
325;SDS011;150;52.352;14.058;2022-09-12T05:05:06;8.80;;;4.60;;
325;SDS011;150;52.352;14.058;2022-09-12T05:07:33;5.10;;;4.45;;
325;SDS011;150;52.352;14.058;2022-09-12T05:09:59;5.20;;;4.30;;
325;SDS011;150;52.352;14.058;2022-09-12T05:12:27;6.38;;;5.53;;
325;SDS011;150;52.352;14.058;2022-09-12T05:14:55;5.38;;;5.07;;
325;SDS011;150;52.352;14.058;2022-09-12T05:17:23;6.40;;;5.63;;
325;SDS011;150;52.352;14.058;2022-09-12T05:19:49;6.60;;;6.07;;
325;SDS011;150;52.352;14.058;2022-09-12T05:22:16;6.47;;;5.93;;
325;SDS011;150;52.352;14.058;2022-09-12T05:24:42;5.25;;;4.88;;
325;SDS011;150;52.352;14.058;2022-09-12T05:27:09;6.60;;;5.80;;
325;SDS011;150;52.352;14.058;2022-09-12T05:29:36;9.48;;;5.63;;
325;SDS011;150;52.352;14.058;2022-09-12T05:32:02;8.65;;;6.18;;
325;SDS011;150;52.352;14.058;2022-09-12T05:34:30;7.05;;;6.35;;
325;SDS011;150;52.352;14.058;2022-09-12T05:36:57;8.23;;;6.13;;
325;SDS011;150;52.352;14.058;2022-09-12T05:39:24;7.15;;;5.97;;
325;SDS011;150;52.352;14.058;2022-09-12T05:41:51;6.63;;;5.60;;
325;SDS011;150;52.352;14.058;2022-09-12T05:44:18;6.85;;;6.45;;
325;SDS011;150;52.352;14.058;2022-09-12T05:46:45;7.53;;;5.50;;
325;SDS011;150;52.352;14.058;2022-09-12T05:49:14;5.47;;;4.95;;
325;SDS011;150;52.352;14.058;2022-09-12T05:51:43;10.07;;;7.40;;
325;SDS011;150;52.352;14.058;2022-09-12T05:54:11;11.43;;;7.75;;
325;SDS011;150;52.352;14.058;2022-09-12T05:56:40;8.00;;;6.93;;
325;SDS011;150;52.352;14.058;2022-09-12T05:59:10;6.65;;;5.63;;
325;SDS011;150;52.352;14.058;2022-09-12T06:01:38;9.10;;;7.70;;
325;SDS011;150;52.352;14.058;2022-09-12T06:04:05;7.50;;;6.10;;
325;SDS011;150;52.352;14.058;2022-09-12T06:06:34;6.65;;;5.78;;
325;SDS011;150;52.352;14.058;2022-09-12T06:09:03;8.52;;;6.25;;
325;SDS011;150;52.352;14.058;2022-09-12T06:11:37;6.87;;;5.50;;
325;SDS011;150;52.352;14.058;2022-09-12T06:14:06;6.30;;;5.50;;
325;SDS011;150;52.352;14.058;2022-09-12T06:16:43;6.55;;;5.50;;
325;SDS011;150;52.352;14.058;2022-09-12T06:19:18;8.27;;;5.80;;
325;SDS011;150;52.352;14.058;2022-09-12T06:21:45;6.95;;;5.22;;
325;SDS011;150;52.352;14.058;2022-09-12T06:24:22;5.80;;;5.28;;
325;SDS011;150;52.352;14.058;2022-09-12T06:26:49;6.97;;;5.72;;
325;SDS011;150;52.352;14.058;2022-09-12T06:29:23;8.25;;;7.55;;
325;SDS011;150;52.352;14.058;2022-09-12T06:31:51;9.25;;;6.75;;
325;SDS011;150;52.352;14.058;2022-09-12T06:34:24;8.60;;;6.80;;
325;SDS011;150;52.352;14.058;2022-09-12T06:36:51;8.25;;;5.85;;
325;SDS011;150;52.352;14.058;2022-09-12T06:39:29;7.05;;;6.00;;
325;SDS011;150;52.352;14.058;2022-09-12T06:42:06;6.70;;;5.90;;
325;SDS011;150;52.352;14.058;2022-09-12T06:44:33;7.75;;;6.70;;
325;SDS011;150;52.352;14.058;2022-09-12T06:47:07;8.40;;;6.72;;
325;SDS011;150;52.352;14.058;2022-09-12T06:49:33;9.43;;;7.20;;
325;SDS011;150;52.352;14.058;2022-09-12T06:52:09;9.65;;;6.63;;
325;SDS011;150;52.352;14.058;2022-09-12T06:54:37;10.15;;;7.68;;
325;SDS011;150;52.352;14.058;2022-09-12T06:57:43;9.35;;;7.88;;
325;SDS011;150;52.352;14.058;2022-09-12T07:00:07;9.70;;;6.97;;
325;SDS011;150;52.352;14.058;2022-09-12T07:02:35;12.52;;;10.60;;
325;SDS011;150;52.352;14.058;2022-09-12T07:05:07;10.05;;;7.72;;
325;SDS011;150;52.352;14.058;2022-09-12T07:07:38;9.93;;;7.30;;
325;SDS011;150;52.352;14.058;2022-09-12T07:10:11;8.43;;;6.53;;
325;SDS011;150;52.352;14.058;2022-09-12T07:12:44;8.50;;;6.77;;
325;SDS011;150;52.352;14.058;2022-09-12T07:15:11;8.85;;;6.93;;
325;SDS011;150;52.352;14.058;2022-09-12T07:17:38;8.63;;;6.72;;
325;SDS011;150;52.352;14.058;2022-09-12T07:20:08;8.95;;;6.90;;
325;SDS011;150;52.352;14.058;2022-09-12T07:22:34;12.07;;;7.68;;
325;SDS011;150;52.352;14.058;2022-09-12T07:25:01;10.68;;;7.43;;
325;SDS011;150;52.352;14.058;2022-09-12T07:27:33;8.90;;;6.57;;
325;SDS011;150;52.352;14.058;2022-09-12T07:30:03;10.57;;;6.80;;
325;SDS011;150;52.352;14.058;2022-09-12T07:32:38;10.70;;;7.32;;
325;SDS011;150;52.352;14.058;2022-09-12T07:35:10;10.32;;;6.60;;
325;SDS011;150;52.352;14.058;2022-09-12T07:37:37;9.85;;;6.90;;
325;SDS011;150;52.352;14.058;2022-09-12T07:40:04;10.32;;;7.15;;
325;SDS011;150;52.352;14.058;2022-09-12T07:42:40;9.38;;;7.20;;
325;SDS011;150;52.352;14.058;2022-09-12T07:45:06;10.57;;;8.10;;
325;SDS011;150;52.352;14.058;2022-09-12T07:47:39;10.15;;;7.18;;
325;SDS011;150;52.352;14.058;2022-09-12T07:50:06;11.63;;;8.90;;
325;SDS011;150;52.352;14.058;2022-09-12T07:52:36;13.88;;;8.68;;
325;SDS011;150;52.352;14.058;2022-09-12T07:55:03;12.47;;;8.47;;
325;SDS011;150;52.352;14.058;2022-09-12T07:57:30;10.60;;;8.30;;
325;SDS011;150;52.352;14.058;2022-09-12T08:00:02;10.73;;;7.90;;
325;SDS011;150;52.352;14.058;2022-09-12T08:02:36;10.53;;;8.00;;
325;SDS011;150;52.352;14.058;2022-09-12T08:05:13;10.77;;;7.65;;
325;SDS011;150;52.352;14.058;2022-09-12T08:08:23;12.53;;;8.00;;
325;SDS011;150;52.352;14.058;2022-09-12T08:11:00;13.13;;;8.90;;
325;SDS011;150;52.352;14.058;2022-09-12T08:13:37;9.68;;;8.02;;
325;SDS011;150;52.352;14.058;2022-09-12T08:16:16;11.23;;;8.02;;
325;SDS011;150;52.352;14.058;2022-09-12T08:18:51;9.77;;;7.30;;
325;SDS011;150;52.352;14.058;2022-09-12T08:24:24;9.30;;;7.10;;
325;SDS011;150;52.352;14.058;2022-09-12T08:26:53;8.93;;;7.50;;
325;SDS011;150;52.352;14.058;2022-09-12T08:32:41;10.07;;;7.72;;
325;SDS011;150;52.352;14.058;2022-09-12T08:38:10;8.20;;;6.68;;
325;SDS011;150;52.352;14.058;2022-09-12T08:41:13;10.20;;;7.13;;
325;SDS011;150;52.352;14.058;2022-09-12T08:44:03;8.23;;;6.60;;
325;SDS011;150;52.352;14.058;2022-09-12T08:49:24;6.57;;;5.28;;
325;SDS011;150;52.352;14.058;2022-09-12T08:50:17;11.70;;;10.45;;
325;SDS011;150;52.352;14.058;2022-09-12T08:56:10;7.78;;;5.85;;
325;SDS011;150;52.352;14.058;2022-09-12T08:58:40;6.88;;;6.03;;
325;SDS011;150;52.352;14.058;2022-09-12T09:04:30;6.80;;;5.93;;
325;SDS011;150;52.352;14.058;2022-09-12T09:07:30;5.93;;;4.80;;
325;SDS011;150;52.352;14.058;2022-09-12T09:10:32;6.72;;;5.70;;
325;SDS011;150;52.352;14.058;2022-09-12T09:13:10;5.72;;;4.85;;
325;SDS011;150;52.352;14.058;2022-09-12T09:16:10;5.05;;;4.78;;
325;SDS011;150;52.352;14.058;2022-09-12T09:18:57;4.63;;;3.95;;
325;SDS011;150;52.352;14.058;2022-09-12T09:21:44;5.55;;;4.18;;
325;SDS011;150;52.352;14.058;2022-09-12T09:24:31;4.00;;;3.17;;
325;SDS011;150;52.352;14.058;2022-09-12T09:27:21;4.43;;;3.30;;
325;SDS011;150;52.352;14.058;2022-09-12T09:29:55;3.72;;;3.40;;
325;SDS011;150;52.352;14.058;2022-09-12T09:32:30;3.55;;;2.85;;
325;SDS011;150;52.352;14.058;2022-09-12T09:35:12;8.77;;;3.67;;
325;SDS011;150;52.352;14.058;2022-09-12T09:37:54;5.55;;;3.35;;
325;SDS011;150;52.352;14.058;2022-09-12T09:40:43;3.35;;;2.65;;
325;SDS011;150;52.352;14.058;2022-09-12T09:43:24;5.15;;;4.03;;
325;SDS011;150;52.352;14.058;2022-09-12T09:45:53;4.30;;;2.30;;
325;SDS011;150;52.352;14.058;2022-09-12T09:48:25;4.10;;;3.30;;
325;SDS011;150;52.352;14.058;2022-09-12T09:51:25;3.35;;;2.35;;
325;SDS011;150;52.352;14.058;2022-09-12T09:54:22;3.47;;;1.90;;
325;SDS011;150;52.352;14.058;2022-09-12T09:56:57;3.10;;;2.20;;
325;SDS011;150;52.352;14.058;2022-09-12T09:59:48;4.10;;;2.60;;
325;SDS011;150;52.352;14.058;2022-09-12T10:02:18;2.67;;;2.20;;
325;SDS011;150;52.352;14.058;2022-09-12T10:04:51;3.13;;;2.05;;
325;SDS011;150;52.352;14.058;2022-09-12T10:07:22;3.25;;;2.40;;
325;SDS011;150;52.352;14.058;2022-09-12T10:10:02;2.40;;;1.70;;
325;SDS011;150;52.352;14.058;2022-09-12T10:16:31;2.90;;;2.20;;
325;SDS011;150;52.352;14.058;2022-09-12T10:19:00;2.75;;;1.58;;
325;SDS011;150;52.352;14.058;2022-09-12T10:21:33;2.78;;;1.80;;
325;SDS011;150;52.352;14.058;2022-09-12T10:24:22;2.40;;;1.80;;
325;SDS011;150;52.352;14.058;2022-09-12T10:29:59;3.63;;;2.10;;
325;SDS011;150;52.352;14.058;2022-09-12T10:32:28;5.93;;;2.00;;
325;SDS011;150;52.352;14.058;2022-09-12T10:35:05;2.70;;;1.67;;
325;SDS011;150;52.352;14.058;2022-09-12T10:37:49;2.20;;;1.60;;
325;SDS011;150;52.352;14.058;2022-09-12T10:40:22;2.70;;;1.90;;
325;SDS011;150;52.352;14.058;2022-09-12T10:42:52;2.83;;;2.40;;
325;SDS011;150;52.352;14.058;2022-09-12T10:45:29;2.60;;;2.00;;
325;SDS011;150;52.352;14.058;2022-09-12T10:48:21;2.80;;;1.90;;
325;SDS011;150;52.352;14.058;2022-09-12T10:50:50;3.97;;;1.67;;
325;SDS011;150;52.352;14.058;2022-09-12T10:53:17;2.45;;;1.90;;
325;SDS011;150;52.352;14.058;2022-09-12T10:55:59;2.60;;;1.50;;
325;SDS011;150;52.352;14.058;2022-09-12T10:58:43;3.40;;;1.30;;
325;SDS011;150;52.352;14.058;2022-09-12T11:01:30;4.18;;;2.20;;
325;SDS011;150;52.352;14.058;2022-09-12T11:06:57;2.03;;;1.50;;
325;SDS011;150;52.352;14.058;2022-09-12T11:09:41;2.53;;;1.33;;
325;SDS011;150;52.352;14.058;2022-09-12T11:12:16;1.98;;;1.15;;
325;SDS011;150;52.352;14.058;2022-09-12T11:14:55;3.60;;;1.35;;
325;SDS011;150;52.352;14.058;2022-09-12T11:17:35;2.58;;;1.25;;
325;SDS011;150;52.352;14.058;2022-09-12T11:20:25;1.50;;;0.90;;
325;SDS011;150;52.352;14.058;2022-09-12T11:25:59;2.10;;;1.03;;
325;SDS011;150;52.352;14.058;2022-09-12T11:28:34;1.70;;;1.00;;
325;SDS011;150;52.352;14.058;2022-09-12T11:31:24;1.63;;;0.88;;
325;SDS011;150;52.352;14.058;2022-09-12T11:34:09;2.43;;;1.00;;
325;SDS011;150;52.352;14.058;2022-09-12T11:36:41;1.90;;;0.88;;
325;SDS011;150;52.352;14.058;2022-09-12T11:39:23;1.50;;;0.90;;
325;SDS011;150;52.352;14.058;2022-09-12T11:41:58;2.00;;;0.98;;
325;SDS011;150;52.352;14.058;2022-09-12T11:44:32;1.70;;;1.10;;
325;SDS011;150;52.352;14.058;2022-09-12T11:47:09;1.83;;;0.88;;
325;SDS011;150;52.352;14.058;2022-09-12T11:49:39;2.80;;;1.00;;
325;SDS011;150;52.352;14.058;2022-09-12T11:52:13;2.00;;;1.05;;
325;SDS011;150;52.352;14.058;2022-09-12T11:54:43;3.42;;;1.30;;
325;SDS011;150;52.352;14.058;2022-09-12T11:57:16;2.00;;;1.10;;
325;SDS011;150;52.352;14.058;2022-09-12T11:59:50;2.28;;;1.00;;
325;SDS011;150;52.352;14.058;2022-09-12T12:02:29;2.67;;;1.80;;
325;SDS011;150;52.352;14.058;2022-09-12T12:05:21;3.10;;;1.40;;
325;SDS011;150;52.352;14.058;2022-09-12T12:08:11;3.25;;;0.98;;
325;SDS011;150;52.352;14.058;2022-09-12T12:10:52;2.22;;;1.00;;
325;SDS011;150;52.352;14.058;2022-09-12T12:13:32;1.85;;;0.98;;
325;SDS011;150;52.352;14.058;2022-09-12T12:16:03;2.90;;;1.00;;
325;SDS011;150;52.352;14.058;2022-09-12T12:18:32;2.25;;;0.90;;
325;SDS011;150;52.352;14.058;2022-09-12T12:21:20;2.53;;;0.93;;
325;SDS011;150;52.352;14.058;2022-09-12T12:24:01;1.63;;;0.90;;
325;SDS011;150;52.352;14.058;2022-09-12T12:26:41;3.72;;;2.65;;
325;SDS011;150;52.352;14.058;2022-09-12T12:32:17;1.70;;;0.90;;
325;SDS011;150;52.352;14.058;2022-09-12T12:34:48;1.60;;;0.90;;
325;SDS011;150;52.352;14.058;2022-09-12T12:40:20;1.60;;;0.80;;
325;SDS011;150;52.352;14.058;2022-09-12T12:45:47;1.98;;;0.80;;
325;SDS011;150;52.352;14.058;2022-09-12T12:48:30;1.60;;;0.80;;
325;SDS011;150;52.352;14.058;2022-09-12T12:53:59;1.60;;;0.70;;
325;SDS011;150;52.352;14.058;2022-09-12T12:56:34;2.00;;;1.00;;
325;SDS011;150;52.352;14.058;2022-09-12T12:59:11;1.83;;;0.90;;
325;SDS011;150;52.352;14.058;2022-09-12T13:01:48;2.15;;;1.15;;
325;SDS011;150;52.352;14.058;2022-09-12T13:04:18;2.78;;;1.98;;
325;SDS011;150;52.352;14.058;2022-09-12T13:06:54;2.20;;;0.77;;
325;SDS011;150;52.352;14.058;2022-09-12T13:09:26;2.58;;;1.70;;
325;SDS011;150;52.352;14.058;2022-09-12T13:11:57;1.50;;;0.70;;
325;SDS011;150;52.352;14.058;2022-09-12T13:14:32;1.80;;;1.00;;
325;SDS011;150;52.352;14.058;2022-09-12T13:17:02;1.40;;;0.75;;
325;SDS011;150;52.352;14.058;2022-09-12T13:19:32;1.80;;;0.80;;
325;SDS011;150;52.352;14.058;2022-09-12T13:22:02;1.70;;;0.90;;
325;SDS011;150;52.352;14.058;2022-09-12T13:24:31;3.65;;;2.65;;
325;SDS011;150;52.352;14.058;2022-09-12T13:26:59;2.53;;;1.83;;
325;SDS011;150;52.352;14.058;2022-09-12T13:29:26;3.90;;;2.30;;
325;SDS011;150;52.352;14.058;2022-09-12T13:31:54;2.17;;;1.45;;
325;SDS011;150;52.352;14.058;2022-09-12T13:34:23;1.50;;;0.90;;
325;SDS011;150;52.352;14.058;2022-09-12T13:39:47;2.00;;;0.90;;
325;SDS011;150;52.352;14.058;2022-09-12T13:45:04;1.50;;;0.80;;
325;SDS011;150;52.352;14.058;2022-09-12T13:47:37;1.53;;;0.80;;
325;SDS011;150;52.352;14.058;2022-09-12T13:50:07;2.00;;;0.90;;
325;SDS011;150;52.352;14.058;2022-09-12T13:52:39;2.30;;;1.00;;
325;SDS011;150;52.352;14.058;2022-09-12T13:55:17;1.58;;;0.80;;
325;SDS011;150;52.352;14.058;2022-09-12T13:57:57;1.70;;;0.80;;
325;SDS011;150;52.352;14.058;2022-09-12T14:00:25;2.13;;;1.10;;
325;SDS011;150;52.352;14.058;2022-09-12T14:02:55;1.80;;;0.77;;
325;SDS011;150;52.352;14.058;2022-09-12T14:05:36;3.00;;;1.30;;
325;SDS011;150;52.352;14.058;2022-09-12T14:08:05;2.35;;;1.05;;
325;SDS011;150;52.352;14.058;2022-09-12T14:10:35;1.50;;;0.90;;
325;SDS011;150;52.352;14.058;2022-09-12T14:13:07;1.83;;;0.82;;
325;SDS011;150;52.352;14.058;2022-09-12T14:15:36;1.77;;;1.10;;
325;SDS011;150;52.352;14.058;2022-09-12T14:18:04;3.13;;;1.10;;
325;SDS011;150;52.352;14.058;2022-09-12T14:20:34;1.90;;;1.10;;
325;SDS011;150;52.352;14.058;2022-09-12T14:23:03;2.05;;;0.70;;
325;SDS011;150;52.352;14.058;2022-09-12T14:25:44;1.50;;;0.80;;
325;SDS011;150;52.352;14.058;2022-09-12T14:28:12;3.90;;;1.83;;
325;SDS011;150;52.352;14.058;2022-09-12T14:30:44;4.10;;;3.22;;
325;SDS011;150;52.352;14.058;2022-09-12T14:33:23;3.20;;;1.37;;
325;SDS011;150;52.352;14.058;2022-09-12T14:35:50;2.60;;;1.20;;
325;SDS011;150;52.352;14.058;2022-09-12T14:38:33;2.25;;;1.30;;
325;SDS011;150;52.352;14.058;2022-09-12T14:41:05;1.73;;;0.95;;
325;SDS011;150;52.352;14.058;2022-09-12T14:43:35;2.50;;;1.10;;
325;SDS011;150;52.352;14.058;2022-09-12T14:46:03;2.35;;;1.35;;
325;SDS011;150;52.352;14.058;2022-09-12T14:48:33;1.90;;;1.00;;
325;SDS011;150;52.352;14.058;2022-09-12T14:51:01;1.63;;;1.00;;
325;SDS011;150;52.352;14.058;2022-09-12T14:53:30;1.80;;;0.93;;
325;SDS011;150;52.352;14.058;2022-09-12T14:56:06;2.10;;;1.00;;
325;SDS011;150;52.352;14.058;2022-09-12T14:58:34;1.92;;;0.90;;
325;SDS011;150;52.352;14.058;2022-09-12T15:01:02;1.98;;;1.10;;
325;SDS011;150;52.352;14.058;2022-09-12T15:03:48;2.00;;;1.10;;
325;SDS011;150;52.352;14.058;2022-09-12T15:06:19;2.20;;;1.20;;
325;SDS011;150;52.352;14.058;2022-09-12T15:08:49;2.20;;;1.30;;
325;SDS011;150;52.352;14.058;2022-09-12T15:11:19;2.05;;;1.08;;
325;SDS011;150;52.352;14.058;2022-09-12T15:13:46;1.90;;;0.90;;
325;SDS011;150;52.352;14.058;2022-09-12T15:16:13;1.90;;;1.17;;
325;SDS011;150;52.352;14.058;2022-09-12T15:18:40;2.22;;;1.58;;
325;SDS011;150;52.352;14.058;2022-09-12T15:21:09;4.40;;;1.55;;
325;SDS011;150;52.352;14.058;2022-09-12T15:23:39;3.40;;;2.45;;
325;SDS011;150;52.352;14.058;2022-09-12T15:26:09;2.40;;;1.60;;
325;SDS011;150;52.352;14.058;2022-09-12T15:28:39;2.00;;;1.20;;
325;SDS011;150;52.352;14.058;2022-09-12T15:31:06;2.50;;;1.40;;
325;SDS011;150;52.352;14.058;2022-09-12T15:33:37;4.53;;;2.23;;
325;SDS011;150;52.352;14.058;2022-09-12T15:36:07;2.57;;;1.53;;
325;SDS011;150;52.352;14.058;2022-09-12T15:38:40;1.93;;;1.20;;
325;SDS011;150;52.352;14.058;2022-09-12T15:41:09;2.20;;;1.40;;
325;SDS011;150;52.352;14.058;2022-09-12T15:43:38;2.40;;;1.10;;
325;SDS011;150;52.352;14.058;2022-09-12T15:46:05;2.10;;;1.23;;
325;SDS011;150;52.352;14.058;2022-09-12T15:48:32;3.05;;;2.17;;
325;SDS011;150;52.352;14.058;2022-09-12T15:50:58;2.05;;;1.40;;
325;SDS011;150;52.352;14.058;2022-09-12T15:53:25;3.80;;;1.60;;
325;SDS011;150;52.352;14.058;2022-09-12T15:55:53;1.90;;;1.50;;
325;SDS011;150;52.352;14.058;2022-09-12T15:58:20;2.00;;;1.10;;
325;SDS011;150;52.352;14.058;2022-09-12T16:00:48;2.55;;;1.30;;
325;SDS011;150;52.352;14.058;2022-09-12T16:03:16;1.73;;;1.00;;
325;SDS011;150;52.352;14.058;2022-09-12T16:05:47;3.70;;;2.55;;
325;SDS011;150;52.352;14.058;2022-09-12T16:08:14;2.85;;;1.90;;
325;SDS011;150;52.352;14.058;2022-09-12T16:10:41;7.80;;;6.40;;
325;SDS011;150;52.352;14.058;2022-09-12T16:13:09;4.63;;;3.20;;
325;SDS011;150;52.352;14.058;2022-09-12T16:15:35;2.90;;;1.80;;
325;SDS011;150;52.352;14.058;2022-09-12T16:18:04;3.22;;;1.20;;
325;SDS011;150;52.352;14.058;2022-09-12T16:20:31;2.30;;;1.52;;
325;SDS011;150;52.352;14.058;2022-09-12T16:22:57;2.20;;;1.20;;
325;SDS011;150;52.352;14.058;2022-09-12T16:25:24;1.75;;;1.10;;
325;SDS011;150;52.352;14.058;2022-09-12T16:27:50;2.17;;;1.13;;
325;SDS011;150;52.352;14.058;2022-09-12T16:30:17;1.90;;;1.20;;
325;SDS011;150;52.352;14.058;2022-09-12T16:32:44;3.43;;;1.07;;
325;SDS011;150;52.352;14.058;2022-09-12T16:35:12;1.60;;;1.00;;
325;SDS011;150;52.352;14.058;2022-09-12T16:37:39;2.00;;;1.00;;
325;SDS011;150;52.352;14.058;2022-09-12T16:40:06;1.90;;;1.00;;
325;SDS011;150;52.352;14.058;2022-09-12T16:42:34;2.60;;;1.30;;
325;SDS011;150;52.352;14.058;2022-09-12T16:45:02;1.80;;;1.10;;
325;SDS011;150;52.352;14.058;2022-09-12T16:47:29;3.22;;;1.40;;
325;SDS011;150;52.352;14.058;2022-09-12T16:49:57;2.10;;;1.50;;